If you wish to contribute or participate in the discussions about articles you are invited to join SKYbrary as a registered user

 Actions

Chapecó/Serafin Enoss Bertaso Airport

From SKYbrary Wiki

SBCH
Airport
ICAO: SBCH – IATA: XAP
Summary
Name Chapecó/Serafin Enoss Bertaso Airport
Region South America and Caribbean
Territory Brazil BR.gif
Location Chapeco, Santa Caterina
Serving Chapeco
Elevation 654.101 m
2,146 ft654.101 m
Coordinates 27° 8' 2.68" S, 52° 39' 38.38" W
Runways
Designator Length Width Surface ROPS
11/29 2063 m6,768.373 ft
45 m147.638 ft
ASP /


METAR
Observation SBCH 150300Z 16008KT 9999 FEW025 19/18 Q1012
Station CHAPECO
Date/Time 15 November 2019 03:00:00
Wind direction 160°
Wind speed 08 kts
Lowest cloud amount few clouds
Temperature 19°C
Dew point 18°C
Humidity 93%
QNH 1012 hPa
Weather condition n/a

Serafin Enoss Bertaso Airport serves the town of Chapecó, Brazil.

Climatology

Humid subtropical climate (Köppen climate classification Cfa)

Maps

Terrain

Loading map...

Airport Layout

Loading map...


Accidents & Serious Incidents at or in vicinity of SBCH

None on SKYbrary